createdAt,value
2018-11-11T00:00:11.364Z,100204.26
2018-11-11T00:02:40.023Z,100120.17
2018-11-11T00:05:09.583Z,100212.55
2018-11-11T00:07:38.446Z,100207.09
2018-11-11T00:10:07.099Z,100205.23
2018-11-11T00:12:35.981Z,100196.37
2018-11-11T00:15:04.970Z,100195.05
2018-11-11T00:17:33.706Z,100187.51
2018-11-11T00:20:02.270Z,100189.41
2018-11-11T00:22:30.793Z,100191.88
2018-11-11T00:24:59.508Z,100181.78
2018-11-11T00:27:27.971Z,100184.70
2018-11-11T00:29:56.788Z,100181.14
2018-11-11T00:32:25.253Z,100182.06
2018-11-11T00:34:54.125Z,100183.01
2018-11-11T00:37:22.614Z,100182.83
2018-11-11T00:39:51.135Z,100174.92
2018-11-11T00:42:20.555Z,100177.09
2018-11-11T00:44:49.079Z,100169.27
2018-11-11T00:47:17.754Z,100169.09
2018-11-11T00:49:46.282Z,100159.45
2018-11-11T00:52:15.074Z,100181.70
2018-11-11T00:54:43.539Z,100192.26
2018-11-11T00:57:12.521Z,100203.58
2018-11-11T00:59:41.025Z,100195.67
2018-11-11T01:02:09.520Z,100198.67
2018-11-11T01:04:37.994Z,100189.36
2018-11-11T01:07:06.626Z,100188.81
2018-11-11T01:09:35.475Z,100187.41
2018-11-11T01:12:04.027Z,100193.45
2018-11-11T01:14:32.788Z,100182.13
2018-11-11T01:17:01.246Z,100194.37
2018-11-11T01:19:29.859Z,100194.37
2018-11-11T01:21:58.337Z,100198.33
2018-11-11T01:24:26.845Z,100196.45
2018-11-11T01:26:55.511Z,100191.09
2018-11-11T01:29:24.030Z,100180.08
2018-11-11T01:31:52.886Z,100192.32
2018-11-11T01:34:21.371Z,100183.55
2018-11-11T01:36:49.985Z,100181.77
2018-11-11T01:39:18.528Z,100184.41
2018-11-11T01:41:47.047Z,100178.18
2018-11-11T01:44:15.881Z,100140.89
2018-11-11T01:46:44.482Z,100181.50
2018-11-11T01:49:13.151Z,100175.36
2018-11-11T01:51:41.726Z,100166.90
2018-11-11T01:54:10.292Z,100166.50
2018-11-11T01:56:38.915Z,100159.35
2018-11-11T01:59:07.461Z,100159.44
2018-11-11T02:01:36.183Z,100153.61
2018-11-11T02:04:05.017Z,100169.91
2018-11-11T02:06:33.772Z,100169.91
2018-11-11T02:09:02.271Z,100155.30
2018-11-11T02:11:30.950Z,100149.94
2018-11-11T02:13:59.509Z,100162.76
2018-11-11T02:16:28.002Z,100159.08
2018-11-11T02:18:56.506Z,100157.85
2018-11-11T02:21:25.156Z,100155.98
2018-11-11T02:23:53.854Z,100149.75
2018-11-11T02:26:22.335Z,100151.07
2018-11-11T02:28:51.209Z,100145.80
2018-11-11T02:31:19.672Z,100150.13
2018-11-11T02:33:48.199Z,100146.56
2018-11-11T02:36:16.774Z,100143.92
2018-11-11T02:38:45.255Z,100145.61
2018-11-11T02:41:14.083Z,100037.39
2018-11-11T02:43:42.603Z,100153.81
2018-11-11T02:46:11.550Z,100161.73
2018-11-11T02:48:40.015Z,100162.59
2018-11-11T02:51:08.601Z,100157.22
2018-11-11T02:53:37.191Z,100162.95
2018-11-11T02:56:06.399Z,100161.09
2018-11-11T02:58:35.159Z,100104.66
2018-11-11T03:01:03.705Z,100167.87
2018-11-11T03:03:32.621Z,100167.50
2018-11-11T03:06:01.126Z,100166.03
2018-11-11T03:08:29.726Z,100161.61
2018-11-11T03:10:58.246Z,100167.72
2018-11-11T03:13:26.794Z,100173.00
2018-11-11T03:15:55.330Z,100165.84
2018-11-11T03:18:23.814Z,100167.72
2018-11-11T03:20:52.676Z,100115.22
2018-11-11T03:23:21.223Z,100177.17
2018-11-11T03:25:50.059Z,100174.54
2018-11-11T03:28:18.559Z,100172.81
2018-11-11T03:30:47.246Z,100169.26
2018-11-11T03:33:15.797Z,100171.90
2018-11-11T03:35:44.322Z,100171.90
2018-11-11T03:38:12.963Z,100121.27
2018-11-11T03:40:41.450Z,100183.69
2018-11-11T03:43:10.359Z,100167.36
2018-11-11T03:45:38.836Z,100164.72
2018-11-11T03:48:07.475Z,100163.02
2018-11-11T03:50:36.023Z,100166.44
2018-11-11T03:53:04.609Z,100173.03
2018-11-11T03:55:33.208Z,100072.14
2018-11-11T03:58:01.822Z,100166.44
2018-11-11T04:00:30.691Z,100166.44
2018-11-11T04:02:59.251Z,100161.16
2018-11-11T04:05:28.099Z,100158.52
2018-11-11T04:07:56.568Z,100156.80
2018-11-11T04:10:25.227Z,100147.95
2018-11-11T04:12:53.687Z,100150.97
2018-11-11T04:15:22.158Z,100152.37
2018-11-11T04:17:50.915Z,100149.64
2018-11-11T04:20:20.504Z,100151.91
2018-11-11T04:22:49.602Z,100143.90
2018-11-11T04:25:18.639Z,100093.38
2018-11-11T04:27:47.463Z,100141.27
2018-11-11T04:30:16.262Z,100130.21
2018-11-11T04:32:44.822Z,100125.88
2018-11-11T04:35:13.710Z,100124.20
2018-11-11T04:37:42.277Z,100125.97
2018-11-11T04:40:12.070Z,100121.73
2018-11-11T04:42:40.634Z,100131.16
2018-11-11T04:45:12.733Z,100134.17
2018-11-11T04:47:41.335Z,100127.57
2018-11-11T04:50:11.751Z,100139.36
2018-11-11T04:52:40.306Z,100144.18
2018-11-11T04:55:09.661Z,100137.58
2018-11-11T04:57:38.306Z,100145.13
2018-11-11T05:00:08.486Z,100074.91
2018-11-11T05:02:37.119Z,100143.22
2018-11-11T05:05:06.514Z,100139.66
2018-11-11T05:07:34.986Z,100144.95
2018-11-11T05:10:04.150Z,100140.48
2018-11-11T05:12:32.631Z,100145.31
2018-11-11T05:15:01.524Z,100137.76
2018-11-11T05:17:30.050Z,100139.66
2018-11-11T05:19:58.547Z,100142.30
2018-11-11T05:22:27.325Z,100138.34
2018-11-11T05:24:55.832Z,100153.23
2018-11-11T05:27:24.551Z,100155.02
2018-11-11T05:29:53.023Z,100155.51
2018-11-11T05:32:21.716Z,100152.09
2018-11-11T05:34:50.207Z,100153.23
2018-11-11T05:37:18.730Z,100157.96
2018-11-11T05:39:47.300Z,100159.37
2018-11-11T05:42:15.829Z,100162.47
2018-11-11T05:44:44.576Z,100156.23
2018-11-11T05:47:13.151Z,100166.80
2018-11-11T05:49:41.975Z,100082.24
2018-11-11T05:52:10.450Z,100165.39
2018-11-11T05:54:39.062Z,100159.83
2018-11-11T05:57:07.661Z,100156.23
2018-11-11T05:59:36.160Z,100151.91
2018-11-11T06:02:05.139Z,100147.00
2018-11-11T06:04:33.810Z,100160.60
2018-11-11T06:07:02.606Z,100126.95
2018-11-11T06:09:31.088Z,100165.97
2018-11-11T06:11:59.738Z,100164.56
2018-11-11T06:14:28.218Z,100166.44
2018-11-11T06:16:56.850Z,100165.88
2018-11-11T06:19:25.550Z,100158.05
2018-11-11T06:21:54.314Z,100161.43
2018-11-11T06:24:23.203Z,100161.52
2018-11-11T06:26:51.822Z,100155.51
2018-11-11T06:29:20.891Z,100165.11
2018-11-11T06:31:49.640Z,100157.19
2018-11-11T06:34:18.483Z,100163.42
2018-11-11T06:36:48.154Z,100163.80
2018-11-11T06:39:16.980Z,100160.38
2018-11-11T06:41:45.524Z,100154.55
2018-11-11T06:44:14.190Z,100093.47
2018-11-11T06:46:43.332Z,100156.83
2018-11-11T06:49:11.943Z,100165.20
2018-11-11T06:51:41.317Z,100166.06
2018-11-11T06:54:10.003Z,100156.42
2018-11-11T06:56:39.028Z,100043.00
2018-11-11T06:59:07.691Z,100156.42
2018-11-11T07:01:36.483Z,100138.90
2018-11-11T07:04:05.373Z,100143.81
2018-11-11T07:06:34.282Z,100142.48
2018-11-11T07:09:03.301Z,100144.36
2018-11-11T07:11:31.819Z,100140.41
2018-11-11T07:14:01.181Z,100135.49
2018-11-11T07:16:29.698Z,100126.84
2018-11-11T07:18:59.256Z,100134.17
2018-11-11T07:21:27.807Z,100130.21
2018-11-11T07:23:56.974Z,100135.03
2018-11-11T07:26:25.884Z,100138.53
2018-11-11T07:28:54.622Z,100132.85
2018-11-11T07:31:23.202Z,100134.84
2018-11-11T07:33:51.710Z,100153.59
2018-11-11T07:36:21.114Z,100138.53
2018-11-11T07:38:49.587Z,100147.95
2018-11-11T07:41:18.378Z,100144.08
2018-11-11T07:43:46.875Z,100141.71
2018-11-11T07:46:15.770Z,100135.97
2018-11-11T07:48:44.408Z,100136.06
2018-11-11T07:51:13.025Z,100136.43
2018-11-11T07:53:41.507Z,100149.36
2018-11-11T07:56:10.086Z,100130.41
2018-11-11T07:58:39.004Z,100137.48
2018-11-11T08:01:08.040Z,100128.15
2018-11-11T08:03:37.225Z,100134.02
2018-11-11T08:06:06.331Z,100137.48
2018-11-11T08:08:35.282Z,100140.03
2018-11-11T08:11:14.848Z,100139.07
2018-11-11T08:13:43.364Z,100146.63
2018-11-11T08:16:12.930Z,100139.07
2018-11-11T08:18:44.761Z,100138.89
2018-11-11T08:21:14.181Z,100143.25
2018-11-11T08:23:43.046Z,100152.48
2018-11-11T08:26:11.715Z,100138.06
2018-11-11T08:28:40.310Z,100154.00
2018-11-11T08:31:08.850Z,100155.50
2018-11-11T08:33:37.640Z,100160.31
2018-11-11T08:36:06.426Z,100150.48
2018-11-11T08:38:35.120Z,100146.72
2018-11-11T08:41:04.151Z,100152.00
2018-11-11T08:43:32.615Z,100156.45
2018-11-11T08:46:01.397Z,100150.98
2018-11-11T08:48:29.975Z,100156.27
2018-11-11T08:50:58.479Z,100161.36
2018-11-11T08:53:27.226Z,100084.52
2018-11-11T08:55:55.776Z,100156.44
2018-11-11T08:58:24.632Z,100154.17
2018-11-11T09:00:53.136Z,100157.77
2018-11-11T09:03:21.738Z,100163.50
2018-11-11T09:05:50.261Z,100158.72
2018-11-11T09:08:18.855Z,100165.59
2018-11-11T09:10:47.339Z,100168.51
2018-11-11T09:13:15.819Z,100174.19
2018-11-11T09:15:44.787Z,100175.87
2018-11-11T09:18:13.353Z,100175.87
2018-11-11T09:20:42.403Z,100173.23
2018-11-11T09:23:10.891Z,100180.20
2018-11-11T09:25:39.531Z,100176.64
2018-11-11T09:28:08.202Z,100182.84
2018-11-11T09:30:36.847Z,100180.97
2018-11-11T09:33:06.084Z,100177.02
2018-11-11T09:35:34.667Z,100183.43
2018-11-11T09:38:03.766Z,100177.28
2018-11-11T09:40:32.345Z,100188.71
2018-11-11T09:43:01.105Z,100196.73
2018-11-11T09:45:29.706Z,100188.52
2018-11-11T09:47:58.409Z,100191.93
2018-11-11T09:50:26.926Z,100200.59
2018-11-11T09:52:55.407Z,100197.22
2018-11-11T09:55:24.328Z,100204.19
2018-11-11T09:57:52.816Z,100196.27
2018-11-11T10:00:22.646Z,100197.22
2018-11-11T10:02:57.915Z,100204.19
2018-11-11T10:05:33.617Z,100208.05
2018-11-11T10:09:05.633Z,100208.52
2018-11-11T10:11:38.790Z,100192.48
2018-11-11T10:14:08.855Z,100198.72
2018-11-11T10:16:50.488Z,100197.77
2018-11-11T10:19:25.452Z,100194.20
2018-11-11T10:23:02.541Z,100198.89
2018-11-11T10:27:41.665Z,100197.20
2018-11-11T10:31:17.967Z,100196.25
2018-11-11T10:33:53.602Z,100194.74
2018-11-11T10:36:42.771Z,100203.44
2018-11-11T10:39:17.243Z,100198.34
2018-11-11T10:41:57.124Z,100200.03
2018-11-11T10:45:03.295Z,100204.39
2018-11-11T10:48:35.706Z,100197.39
2018-11-11T10:51:05.823Z,100202.67
2018-11-11T10:53:34.326Z,100199.30
2018-11-11T10:56:03.171Z,100200.42
2018-11-11T10:58:31.655Z,100197.78
2018-11-11T11:01:05.300Z,100197.58
2018-11-11T11:03:35.071Z,100202.30
2018-11-11T11:06:04.363Z,100205.71
2018-11-11T11:08:33.143Z,100200.42
2018-11-11T11:11:01.817Z,100205.12
2018-11-11T11:13:30.756Z,100208.72
2018-11-11T11:15:59.815Z,100207.40
2018-11-11T11:18:28.470Z,100206.45
2018-11-11T11:20:57.188Z,100216.45
2018-11-11T11:23:25.663Z,100207.67
2018-11-11T11:25:54.343Z,100210.04
2018-11-11T11:28:22.819Z,100212.31
2018-11-11T11:30:51.361Z,100213.55
2018-11-11T11:33:20.170Z,100214.19
2018-11-11T11:35:48.739Z,100211.36
2018-11-11T11:38:17.568Z,100206.09
2018-11-11T11:40:46.140Z,100149.86
2018-11-11T11:43:14.892Z,100214.95
2018-11-11T11:45:43.470Z,100220.24
2018-11-11T11:48:12.078Z,100215.88
2018-11-11T11:50:40.722Z,100214.09
2018-11-11T11:53:09.231Z,100217.97
2018-11-11T11:55:37.919Z,100211.27
2018-11-11T11:58:14.546Z,100214.38
2018-11-11T12:00:43.391Z,100208.72
2018-11-11T12:03:12.397Z,100212.12
2018-11-11T12:05:41.045Z,100210.22
2018-11-11T12:08:09.807Z,100212.50
2018-11-11T12:10:38.320Z,100215.14
2018-11-11T12:13:07.390Z,100214.38
2018-11-11T12:15:36.149Z,100213.05
2018-11-11T12:18:04.708Z,100212.50
2018-11-11T12:20:33.604Z,100211.81
2018-11-11T12:23:02.236Z,100218.91
2018-11-11T12:25:31.106Z,100131.34
2018-11-11T12:27:59.723Z,100215.88
2018-11-11T12:30:28.582Z,100217.95
2018-11-11T12:32:57.075Z,100217.00
2018-11-11T12:35:25.584Z,100218.91
2018-11-11T12:37:54.198Z,100222.29
2018-11-11T12:40:22.783Z,100218.33
2018-11-11T12:42:51.703Z,100218.23
2018-11-11T12:45:20.251Z,100217.95
2018-11-11T12:47:48.943Z,100212.86
2018-11-11T12:50:17.612Z,100217.19
2018-11-11T12:52:46.359Z,100216.83
2018-11-11T12:55:15.207Z,100211.91
2018-11-11T12:57:43.691Z,100210.22
2018-11-11T13:00:13.843Z,100217.19
2018-11-11T13:02:42.380Z,100208.34
2018-11-11T13:05:11.690Z,100205.11
2018-11-11T13:07:40.247Z,100206.63
2018-11-11T13:10:12.291Z,100211.91
2018-11-11T13:12:40.967Z,100204.94
2018-11-11T13:15:11.216Z,100211.54
2018-11-11T13:17:40.279Z,100212.86
2018-11-11T13:20:11.423Z,100197.97
2018-11-11T13:22:40.172Z,100214.38
2018-11-11T13:25:09.762Z,100211.36
2018-11-11T13:27:38.626Z,100204.39
2018-11-11T13:30:08.903Z,100211.17
2018-11-11T13:32:37.603Z,100215.05
2018-11-11T13:35:07.527Z,100212.31
2018-11-11T13:37:36.070Z,100220.34
2018-11-11T13:40:06.234Z,100221.94
2018-11-11T13:42:34.788Z,100216.65
2018-11-11T13:45:03.329Z,100234.19
2018-11-11T13:47:31.887Z,100237.02
2018-11-11T13:50:00.627Z,100233.73
2018-11-11T13:52:29.256Z,100232.88
2018-11-11T13:54:57.941Z,100174.35
2018-11-11T13:57:26.505Z,100232.51
2018-11-11T13:59:55.059Z,100234.38
2018-11-11T14:02:23.729Z,100233.52
2018-11-11T14:04:52.312Z,100231.56
2018-11-11T14:07:21.202Z,100230.42
2018-11-11T14:09:49.694Z,100227.02
2018-11-11T14:12:18.475Z,100226.27
2018-11-11T14:14:46.972Z,100229.28
2018-11-11T14:17:15.527Z,100224.38
2018-11-11T14:19:44.106Z,100236.08
2018-11-11T14:22:12.705Z,100223.42
2018-11-11T14:24:41.518Z,100221.18
2018-11-11T14:27:09.947Z,100226.83
2018-11-11T14:29:38.642Z,100227.69
2018-11-11T14:32:07.259Z,100226.65
2018-11-11T14:34:35.841Z,100215.50
2018-11-11T14:37:04.366Z,100228.42
2018-11-11T14:39:32.857Z,100229.29
2018-11-11T14:42:01.543Z,100228.34
2018-11-11T14:44:30.067Z,100227.88
2018-11-11T14:46:58.953Z,100239.09
2018-11-11T14:49:27.427Z,100229.38
2018-11-11T14:51:56.069Z,100229.48
2018-11-11T14:54:24.892Z,100219.09
2018-11-11T14:56:53.775Z,100214.55
2018-11-11T14:59:22.777Z,100211.91
2018-11-11T15:01:51.271Z,100216.36
2018-11-11T15:04:20.274Z,100216.45
2018-11-11T15:06:48.770Z,100215.69
2018-11-11T15:09:17.864Z,100207.30
2018-11-11T15:11:46.384Z,100210.59
2018-11-11T15:14:15.200Z,100213.78
2018-11-11T15:16:43.795Z,100204.53
2018-11-11T15:19:12.538Z,100210.77
2018-11-11T15:21:41.512Z,100208.12
2018-11-11T15:24:10.102Z,100211.73
2018-11-11T15:26:39.232Z,100208.12
2018-11-11T15:29:07.935Z,100209.27
2018-11-11T15:31:36.827Z,100205.86
2018-11-11T15:34:05.890Z,100204.35
2018-11-11T15:36:34.655Z,100212.09
2018-11-11T15:39:03.299Z,100209.05
2018-11-11T15:41:32.013Z,99938.13
2018-11-11T15:44:00.519Z,100209.27
2018-11-11T15:46:29.042Z,100216.42
2018-11-11T15:48:57.917Z,100230.94
2018-11-11T15:51:26.394Z,100214.14
2018-11-11T15:53:55.335Z,100221.23
2018-11-11T15:56:23.887Z,100224.80
2018-11-11T15:58:52.515Z,100216.05
2018-11-11T16:01:21.092Z,100218.29
2018-11-11T16:03:50.188Z,100228.30
2018-11-11T16:06:18.815Z,100227.53
2018-11-11T16:08:47.318Z,100229.43
2018-11-11T16:11:16.077Z,100178.69
2018-11-11T16:13:44.543Z,100230.17
2018-11-11T16:16:13.392Z,100224.16
2018-11-11T16:18:41.999Z,100225.94
2018-11-11T16:21:10.483Z,100226.02
2018-11-11T16:23:39.393Z,100233.58
2018-11-11T16:26:07.900Z,100221.30
2018-11-11T16:28:36.695Z,100230.44
2018-11-11T16:31:05.677Z,100221.47
2018-11-11T16:33:34.689Z,100223.74
2018-11-11T16:36:03.331Z,100227.16
2018-11-11T16:38:32.155Z,100225.44
2018-11-11T16:41:00.881Z,100229.80
2018-11-11T16:43:29.656Z,100234.30
2018-11-11T16:45:58.503Z,100232.44
2018-11-11T16:48:26.972Z,100237.63
2018-11-11T16:50:56.191Z,100233.27
2018-11-11T16:53:24.754Z,100238.08
2018-11-11T16:55:53.670Z,100238.63
2018-11-11T16:58:22.146Z,100239.22
2018-11-11T17:00:50.943Z,100143.02
2018-11-11T17:03:19.424Z,100239.58
2018-11-11T17:05:48.106Z,100240.13
2018-11-11T17:08:16.763Z,100234.48
2018-11-11T17:10:45.292Z,100231.84
2018-11-11T17:13:15.055Z,100229.57
2018-11-11T17:15:43.639Z,100230.16
2018-11-11T17:18:12.554Z,100229.57
2018-11-11T17:20:41.239Z,100226.56
2018-11-11T17:23:10.084Z,100174.20
2018-11-11T17:25:38.731Z,100230.89
2018-11-11T17:28:07.512Z,100228.75
2018-11-11T17:30:36.067Z,100233.53
2018-11-11T17:33:04.984Z,100231.94
2018-11-11T17:35:33.479Z,100234.66
2018-11-11T17:38:02.009Z,100237.36
2018-11-11T17:40:31.459Z,100234.66
2018-11-11T17:43:00.661Z,100231.22
2018-11-11T17:45:29.611Z,100237.45
2018-11-11T17:47:58.347Z,100230.85
2018-11-11T17:50:30.328Z,100100.98
2018-11-11T17:52:59.526Z,100218.88
2018-11-11T17:55:28.702Z,100127.55
2018-11-11T17:57:57.138Z,100232.17
2018-11-11T18:00:27.184Z,100227.66
2018-11-11T18:02:56.445Z,100229.38
2018-11-11T18:05:26.527Z,100220.52
2018-11-11T18:07:55.127Z,100216.19
2018-11-11T18:10:24.732Z,100230.16
2018-11-11T18:12:53.296Z,100225.80
2018-11-11T18:15:23.599Z,100232.02
2018-11-11T18:17:52.079Z,100227.84
2018-11-11T18:20:22.123Z,100185.13
2018-11-11T18:22:51.505Z,100237.30
2018-11-11T18:25:20.471Z,100231.56
2018-11-11T18:27:49.034Z,100242.18
2018-11-11T18:30:22.144Z,100244.82
2018-11-11T18:32:50.787Z,100239.55
2018-11-11T18:35:20.567Z,100219.51
2018-11-11T18:37:49.093Z,100241.63
2018-11-11T18:40:19.367Z,100236.35
2018-11-11T18:42:47.880Z,100243.36
2018-11-11T18:45:17.977Z,100254.66
2018-11-11T18:47:47.318Z,100244.27
2018-11-11T18:50:18.510Z,100249.38
2018-11-11T18:52:47.124Z,100255.52
2018-11-11T18:55:15.953Z,100256.38
2018-11-11T18:57:45.058Z,100251.47
2018-11-11T19:00:18.255Z,100250.69
2018-11-11T19:02:47.978Z,100250.23
2018-11-11T19:05:17.467Z,100245.81
2018-11-11T19:07:46.316Z,100244.86
2018-11-11T19:10:16.683Z,100250.42
2018-11-11T19:12:46.507Z,100251.28
2018-11-11T19:15:16.074Z,100243.73
2018-11-11T19:17:45.411Z,100249.02
2018-11-11T19:20:15.254Z,100248.09
2018-11-11T19:22:44.079Z,100249.97
2018-11-11T19:25:14.674Z,100250.91
2018-11-11T19:27:45.188Z,100250.34
2018-11-11T19:30:14.737Z,100256.84
2018-11-11T19:32:44.769Z,100258.08
2018-11-11T19:35:14.606Z,100255.06
2018-11-11T19:37:51.593Z,100184.23
2018-11-11T19:40:21.707Z,100247.14
2018-11-11T19:42:51.223Z,100246.97
2018-11-11T19:45:21.485Z,100243.38
2018-11-11T19:47:50.809Z,100252.61
2018-11-11T19:50:20.862Z,100242.45
2018-11-11T19:52:51.160Z,100246.78
2018-11-11T19:55:20.491Z,100240.19
2018-11-11T19:57:49.718Z,100243.59
2018-11-11T20:00:23.573Z,100233.03
2018-11-11T20:02:53.034Z,100233.03
2018-11-11T20:05:21.991Z,100242.15
2018-11-11T20:07:51.891Z,100233.77
2018-11-11T20:10:21.152Z,100230.76
2018-11-11T20:12:49.754Z,100239.51
2018-11-11T20:15:23.143Z,100233.22
2018-11-11T20:17:51.641Z,100226.98
2018-11-11T20:20:21.599Z,100229.44
2018-11-11T20:22:50.404Z,100227.75
2018-11-11T20:25:20.048Z,100231.99
2018-11-11T20:27:48.900Z,100222.06
2018-11-11T20:30:19.672Z,100241.51
2018-11-11T20:32:48.207Z,100242.28
2018-11-11T20:35:21.049Z,100245.78
2018-11-11T20:37:49.562Z,100242.56
2018-11-11T20:40:19.872Z,100247.37
2018-11-11T20:42:48.812Z,100248.15
2018-11-11T20:45:19.180Z,100253.43
2018-11-11T20:47:48.475Z,100254.17
2018-11-11T20:50:18.595Z,100254.17
2018-11-11T20:52:48.291Z,100249.28
2018-11-11T20:55:17.835Z,100250.42
2018-11-11T20:57:46.347Z,100249.47
2018-11-11T21:00:17.791Z,100261.36
2018-11-11T21:02:46.311Z,100248.52
2018-11-11T21:05:16.460Z,100256.08
2018-11-11T21:07:45.143Z,100265.14
2018-11-11T21:10:16.112Z,100266.83
2018-11-11T21:12:44.717Z,100267.78
2018-11-11T21:15:14.602Z,100270.42
2018-11-11T21:17:43.663Z,100277.39
2018-11-11T21:20:14.816Z,100275.16
2018-11-11T21:22:43.586Z,100279.11
2018-11-11T21:25:12.480Z,100282.13
2018-11-11T21:27:42.037Z,100268.55
2018-11-11T21:30:13.174Z,100277.30
2018-11-11T21:32:41.862Z,100278.93
2018-11-11T21:35:10.988Z,100274.47
2018-11-11T21:37:39.613Z,100274.56
2018-11-11T21:40:11.235Z,100278.93
2018-11-11T21:42:40.708Z,100267.59
2018-11-11T21:45:11.067Z,100281.17
2018-11-11T21:47:40.208Z,100282.13
2018-11-11T21:50:11.200Z,100271.37
2018-11-11T21:52:40.036Z,100237.91
2018-11-11T21:55:09.029Z,100281.17
2018-11-11T21:57:37.890Z,100230.57
2018-11-11T22:00:09.413Z,100290.23
2018-11-11T22:02:38.098Z,100290.14
2018-11-11T22:05:08.346Z,100288.45
2018-11-11T22:07:37.576Z,100284.03
2018-11-11T22:10:08.067Z,100277.03
2018-11-11T22:12:36.693Z,100287.59
2018-11-11T22:15:06.355Z,100278.75
2018-11-11T22:17:35.189Z,100235.85
2018-11-11T22:20:03.843Z,100290.64
2018-11-11T22:22:32.679Z,100302.44
2018-11-11T22:25:01.154Z,100296.66
2018-11-11T22:27:29.766Z,100290.82
2018-11-11T22:29:58.271Z,100292.60
2018-11-11T22:32:26.835Z,100297.06
2018-11-11T22:34:55.535Z,100252.84
2018-11-11T22:37:24.154Z,100306.09
2018-11-11T22:39:52.991Z,100297.80
2018-11-11T22:42:21.527Z,100301.94
2018-11-11T22:44:50.540Z,100306.36
2018-11-11T22:47:19.095Z,100305.91
2018-11-11T22:49:47.576Z,100308.17
2018-11-11T22:52:16.163Z,100322.61
2018-11-11T22:54:44.765Z,100318.66
2018-11-11T22:57:13.696Z,100323.08
2018-11-11T23:02:02.515Z,100316.84
2018-11-11T23:04:31.122Z,100322.13
2018-11-11T23:06:59.602Z,100327.41
2018-11-11T23:09:28.154Z,100324.67
2018-11-11T23:11:56.895Z,100330.73
2018-11-11T23:14:25.383Z,100325.91
2018-11-11T23:16:54.254Z,100325.36
2018-11-11T23:19:22.812Z,100328.00
2018-11-11T23:21:51.418Z,100330.64
2018-11-11T23:24:19.991Z,100336.52
2018-11-11T23:26:48.466Z,100340.84
2018-11-11T23:29:17.294Z,100241.45
2018-11-11T23:31:45.781Z,100339.89
2018-11-11T23:34:14.610Z,100338.97
2018-11-11T23:36:43.080Z,100345.45
2018-11-11T23:39:11.896Z,100348.59
2018-11-11T23:41:40.399Z,100354.83
2018-11-11T23:44:09.699Z,100351.23
2018-11-11T23:46:38.930Z,100280.57
2018-11-11T23:49:08.188Z,100338.02
2018-11-11T23:51:37.082Z,100324.22
2018-11-11T23:54:05.957Z,100342.35
2018-11-11T23:56:34.884Z,100346.69
2018-11-11T23:59:03.370Z,100340.94
